Terminal Aerodrome Forecast
Issued by NWS

Home | Current Version | Previous Version | Graphics & Text | Print | Product List | Glossary Off
Versions: 1 2 3 4 5 6 7 8 9 10 11 12 13 14

000
FTUS43 KUNR 201700
TAFGCC
TAF
KGCC 201720Z 2018/2118 33015KT P6SM SCT100 BKN250
     FM210300 30008KT P6SM SCT250
     FM210600 21005KT P6SM SCT250=

USA.gov is the U.S. government's official web portal to all federal, state and local government web resources and services.